Time;durP1;ratioP1;P1;durP2;ratioP2;P2;SDS_P1;SDS_P2;PMS_P1;PMS_P2;Temp;Humidity;BMP_temperature;BMP_pressure;BME280_temperature;BME280_humidity;BME280_pressure;Samples;Min_cycle;Max_cycle;Signal;HPM_P1;HPM_P2
2021/03/28 00:00:57;;;;;;;9.25;0.65;;;5.20;99.90;;;;;;5006731;28;20058;-79
2021/03/28 00:03:29;;;;;;;4.72;0.55;;;5.10;99.90;;;;;;4990276;28;20038;-79
2021/03/28 00:06:13;;;;;;;5.80;0.68;;;5.10;99.90;;;;;;5006488;28;20113;-79
2021/03/28 00:08:43;;;;;;;8.20;0.82;;;5.00;99.90;;;;;;5007612;28;20043;-79
2021/03/28 00:11:19;;;;;;;4.82;0.52;;;4.90;99.90;;;;;;4990360;28;20058;-79
2021/03/28 00:13:54;;;;;;;6.03;0.70;;;5.10;99.90;;;;;;4990105;28;20044;-79
2021/03/28 00:16:27;;;;;;;11.35;1.27;;;5.10;99.90;;;;;;4994419;28;20026;-79
2021/03/28 00:19:02;;;;;;;10.20;0.90;;;5.20;99.90;;;;;;5026173;28;20087;-79
2021/03/28 00:21:53;;;;;;;7.07;0.70;;;5.10;99.90;;;;;;5009718;28;20109;-79
2021/03/28 00:24:27;;;;;;;6.60;0.77;;;5.00;99.90;;;;;;4988121;28;20041;-79
2021/03/28 00:27:16;;;;;;;5.43;0.70;;;5.00;99.90;;;;;;5009451;28;20060;-79
2021/03/28 00:29:57;;;;;;;7.40;0.77;;;5.00;99.90;;;;;;5009661;28;20037;-79
2021/03/28 00:32:44;;;;;;;5.70;0.70;;;5.00;99.90;;;;;;5009241;28;20280;-79
2021/03/28 00:35:21;;;;;;;10.38;0.82;;;5.10;99.90;;;;;;5025917;28;20037;-79
2021/03/28 00:38:10;;;;;;;7.88;0.90;;;5.20;99.90;;;;;;5025615;28;20034;-79
2021/03/28 00:40:37;;;;;;;6.53;0.90;;;5.10;99.90;;;;;;5009277;28;20097;-79
2021/03/28 00:43:19;;;;;;;6.97;0.80;;;5.10;99.90;;;;;;5009180;28;20045;-79
2021/03/28 00:45:56;;;;;;;5.18;0.65;;;5.00;99.90;;;;;;5009327;28;20030;-79
2021/03/28 00:48:27;;;;;;;7.70;0.65;;;5.00;99.90;;;;;;5009190;28;20590;-79
2021/03/28 00:51:09;;;;;;;7.32;0.88;;;5.10;99.90;;;;;;4993122;28;20029;-79
2021/03/28 00:53:38;;;;;;;8.95;0.70;;;5.10;99.90;;;;;;4992555;28;20033;-79
2021/03/28 00:56:37;;;;;;;5.25;0.73;;;5.10;99.90;;;;;;5026599;28;20037;-79
2021/03/28 00:59:19;;;;;;;13.10;1.50;;;5.20;99.90;;;;;;5008969;28;20030;-79
2021/03/28 01:02:20;;;;;;;4.30;0.63;;;5.10;99.90;;;;;;5010699;28;20050;-79
2021/03/28 01:08:07;;;;;;;6.45;1.05;;;5.10;99.90;;;;;;4965069;29;20059;-79
2021/03/28 01:10:48;;;;;;;11.07;1.33;;;5.20;99.90;;;;;;4965565;29;20176;-79
2021/03/28 01:13:51;;;;;;;7.57;0.80;;;5.20;99.90;;;;;;4933465;29;20162;-79
2021/03/28 01:16:34;;;;;;;10.52;1.48;;;5.20;99.90;;;;;;4965451;29;20111;-79
2021/03/28 01:19:37;;;;;;;11.15;1.08;;;5.20;99.90;;;;;;4949347;29;20043;-79
2021/03/28 01:22:17;;;;;;;4.78;1.38;;;5.10;99.90;;;;;;4965196;29;20051;-79
2021/03/28 01:24:52;;;;;;;10.48;0.82;;;5.10;99.90;;;;;;4949174;29;20039;-79
2021/03/28 01:27:34;;;;;;;7.80;0.88;;;5.10;99.90;;;;;;4965394;29;20086;-79
2021/03/28 01:30:07;;;;;;;10.07;1.38;;;5.10;99.90;;;;;;4949232;29;20109;-79
2021/03/28 01:32:47;;;;;;;16.17;2.58;;;5.10;99.90;;;;;;4965148;29;20073;-79
2021/03/28 01:35:13;;;;;;;6.88;1.13;;;5.20;99.90;;;;;;4948850;29;20625;-79
2021/03/28 01:37:48;;;;;;;7.40;1.10;;;5.10;99.90;;;;;;4965196;29;20071;-79
2021/03/28 01:40:41;;;;;;;13.82;1.45;;;5.10;99.90;;;;;;4948987;29;20043;-79
2021/03/28 01:43:13;;;;;;;5.93;0.75;;;5.10;99.90;;;;;;4964907;29;20579;-79
2021/03/28 01:46:06;;;;;;;7.47;0.60;;;5.10;99.90;;;;;;5010254;28;20053;-79
2021/03/28 01:48:44;;;;;;;6.68;1.10;;;5.00;99.90;;;;;;5025831;28;20080;-79
2021/03/28 01:51:36;;;;;;;8.70;1.23;;;5.00;99.90;;;;;;5025749;28;20037;-79
2021/03/28 01:54:32;;;;;;;7.35;1.15;;;5.10;99.90;;;;;;5008035;28;20069;-79
2021/03/28 01:57:20;;;;;;;6.00;0.88;;;4.90;99.90;;;;;;5008211;28;20080;-79
2021/03/28 02:00:16;;;;;;;5.82;0.70;;;4.90;99.90;;;;;;5007967;28;20037;-79
2021/03/28 02:02:54;;;;;;;6.68;0.60;;;4.80;99.90;;;;;;5007787;28;20045;-79
2021/03/28 02:05:42;;;;;;;8.13;0.70;;;4.90;99.90;;;;;;5025530;28;20029;-79
2021/03/28 02:08:17;;;;;;;7.38;0.65;;;5.00;99.90;;;;;;4945619;29;20051;-79
2021/03/28 02:11:13;;;;;;;4.57;0.88;;;5.00;99.90;;;;;;4945547;29;20080;-79
2021/03/28 02:14:09;;;;;;;7.55;0.63;;;5.00;99.90;;;;;;4929687;29;20304;-79
2021/03/28 02:16:40;;;;;;;8.38;1.00;;;5.00;99.90;;;;;;4946392;29;20111;-79
2021/03/28 02:19:20;;;;;;;6.10;0.73;;;5.10;99.90;;;;;;4949679;29;20107;-79
2021/03/28 02:22:10;;;;;;;9.80;1.33;;;5.00;99.90;;;;;;4933465;29;20107;-79
2021/03/28 02:24:58;;;;;;;9.65;0.70;;;5.00;99.90;;;;;;4949541;29;20070;-79
2021/03/28 02:27:53;;;;;;;9.27;0.90;;;5.10;99.90;;;;;;4949601;29;20646;-79
2021/03/28 02:30:46;;;;;;;7.50;1.02;;;5.10;99.90;;;;;;4933586;29;20078;-79
2021/03/28 02:33:43;;;;;;;9.10;0.65;;;5.10;99.90;;;;;;4949189;29;20043;-79
2021/03/28 02:36:12;;;;;;;8.43;0.80;;;5.10;99.90;;;;;;4949116;29;20039;-79
2021/03/28 02:38:46;;;;;;;3.05;0.50;;;5.10;99.90;;;;;;4949276;29;20044;-79
2021/03/28 02:41:23;;;;;;;6.40;1.15;;;5.10;99.90;;;;;;4948945;29;20054;-79
2021/03/28 02:44:12;;;;;;;6.78;0.93;;;5.10;99.90;;;;;;4949266;29;20322;-79
2021/03/28 02:46:56;;;;;;;9.90;1.00;;;5.10;99.90;;;;;;5029419;28;20431;-79
2021/03/28 02:49:53;;;;;;;7.20;0.80;;;5.20;99.90;;;;;;5011548;28;20026;-80
2021/03/28 02:52:38;;;;;;;7.95;1.15;;;5.30;99.90;;;;;;5010994;28;20103;-79
2021/03/28 02:55:24;;;;;;;12.50;0.90;;;5.30;99.90;;;;;;4994960;28;20113;-79
2021/03/28 02:58:08;;;;;;;7.28;0.57;;;5.30;99.90;;;;;;5011515;28;20054;-79
2021/03/28 03:00:52;;;;;;;10.20;0.70;;;5.30;99.90;;;;;;4994984;28;20038;-79
2021/03/28 03:03:36;;;;;;;4.03;0.40;;;5.30;99.90;;;;;;5011330;28;20497;-79
2021/03/28 03:06:05;;;;;;;9.82;1.05;;;5.20;99.90;;;;;;5012701;28;20033;-79
2021/03/28 03:09:08;;;;;;;8.82;0.60;;;5.30;99.90;;;;;;5012541;28;20054;-79
2021/03/28 03:12:04;;;;;;;5.45;0.50;;;5.30;99.90;;;;;;5011565;28;20508;-79
2021/03/28 03:14:57;;;;;;;4.25;0.43;;;5.30;99.90;;;;;;5010993;28;20040;-80
2021/03/28 03:17:37;;;;;;;5.35;0.50;;;5.30;99.90;;;;;;5028554;28;20036;-79
2021/03/28 03:20:47;;;;;;;5.22;0.50;;;5.30;99.90;;;;;;4994542;28;20034;-79
2021/03/28 03:23:31;;;;;;;8.35;0.95;;;5.40;99.90;;;;;;5028117;28;20038;-80
2021/03/28 03:26:27;;;;;;;6.70;0.57;;;5.40;99.90;;;;;;5026849;28;20076;-79
2021/03/28 03:29:07;;;;;;;6.30;0.60;;;5.40;99.90;;;;;;4993294;28;20037;-79
2021/03/28 03:32:00;;;;;;;9.30;0.85;;;5.30;99.90;;;;;;4994259;28;20030;-80
2021/03/28 03:34:40;;;;;;;5.90;0.50;;;5.30;99.90;;;;;;5027047;28;20382;-80
2021/03/28 03:37:23;;;;;;;4.65;0.50;;;5.30;99.90;;;;;;5010354;28;20041;-79
2021/03/28 03:40:18;;;;;;;8.40;0.43;;;5.30;99.90;;;;;;5010630;28;20034;-79
2021/03/28 03:43:08;;;;;;;9.35;0.60;;;5.20;99.90;;;;;;5010107;28;20052;-80
2021/03/28 03:45:44;;;;;;;;;;;5.30;99.90;;;;;;5010628;28;20025;-79
2021/03/28 03:48:09;;;;;;;7.07;0.60;;;5.30;99.90;;;;;;5028015;28;20020;-79
2021/03/28 03:50:46;;;;;;;5.57;0.50;;;5.30;99.90;;;;;;4993884;28;20379;-79
2021/03/28 03:53:24;;;;;;;9.38;0.45;;;5.30;99.90;;;;;;5010126;28;20030;-79
2021/03/28 03:56:02;;;;;;;9.02;0.65;;;5.30;99.90;;;;;;5010061;28;20034;-79
2021/03/28 03:58:40;;;;;;;8.57;0.55;;;5.30;99.90;;;;;;4993807;28;20037;-80
2021/03/28 04:01:12;;;;;;;4.43;0.40;;;5.30;99.90;;;;;;5010016;28;20484;-80
2021/03/28 04:04:24;;;;;;;7.57;0.73;;;5.30;99.90;;;;;;5009903;28;20060;-79
2021/03/28 04:07:10;;;;;;;6.43;0.40;;;5.40;99.90;;;;;;4985493;28;20074;-80
2021/03/28 04:10:06;;;;;;;5.57;0.50;;;5.30;99.90;;;;;;5009953;28;20045;-79
2021/03/28 04:12:52;;;;;;;6.57;0.55;;;5.40;99.90;;;;;;5009570;28;20026;-80
2021/03/28 04:15:23;;;;;;;5.43;0.60;;;5.40;99.90;;;;;;5027512;28;20033;-79
2021/03/28 04:17:49;;;;;;;2.30;0.40;;;5.30;99.90;;;;;;4993419;28;20030;-80
2021/03/28 04:20:37;;;;;;;7.28;1.00;;;5.30;99.90;;;;;;5009920;28;20026;-79
2021/03/28 04:23:27;;;;;;;3.60;0.60;;;5.40;99.90;;;;;;5027080;28;20038;-80
2021/03/28 04:26:11;;;;;;;3.60;0.60;;;5.50;99.90;;;;;;5009598;28;20030;-80
2021/03/28 04:28:52;;;;;;;3.38;0.50;;;5.50;99.90;;;;;;4993332;28;20442;-80
2021/03/28 04:31:21;;;;;;;8.52;0.70;;;5.40;99.90;;;;;;5009325;28;20501;-80
2021/03/28 04:34:13;;;;;;;5.60;0.50;;;5.50;99.90;;;;;;5009533;28;20050;-79
2021/03/28 04:37:02;;;;;;;7.38;0.57;;;5.60;99.90;;;;;;4992958;28;20026;-80
2021/03/28 04:39:49;;;;;;;8.40;0.73;;;5.70;99.90;;;;;;5025772;28;20205;-79
2021/03/28 04:42:27;;;;;;;8.57;0.82;;;5.60;99.90;;;;;;4992599;28;20060;-79
2021/03/28 04:45:03;;;;;;;5.05;0.60;;;5.60;99.90;;;;;;4992988;28;20034;-80
2021/03/28 04:47:52;;;;;;;5.60;0.55;;;5.70;99.90;;;;;;5009142;28;20038;-79
2021/03/28 04:50:53;;;;;;;6.20;0.70;;;5.70;99.90;;;;;;5009267;28;20052;-80
2021/03/28 04:54:01;;;;;;;8.90;1.00;;;5.80;99.90;;;;;;4946322;29;20035;-80
2021/03/28 04:56:38;;;;;;;7.50;1.20;;;5.80;99.90;;;;;;4946627;29;20053;-79
2021/03/28 04:59:09;;;;;;;4.35;0.40;;;5.80;99.90;;;;;;4946452;29;20079;-80
2021/03/28 05:02:13;;;;;;;4.50;0.57;;;5.70;99.90;;;;;;4946333;29;20083;-80
2021/03/28 05:05:30;;;;;;;5.28;0.57;;;5.70;99.90;;;;;;4911586;29;20040;-80
2021/03/28 05:08:17;;;;;;;3.97;0.40;;;5.90;99.90;;;;;;4911413;29;20107;-80
2021/03/28 05:11:10;;;;;;;5.72;0.65;;;5.90;99.90;;;;;;4927406;29;20044;-80
2021/03/28 05:13:52;;;;;;;4.60;0.50;;;5.90;99.90;;;;;;4911460;29;20593;-80
2021/03/28 05:16:55;;;;;;;8.63;0.50;;;5.90;99.90;;;;;;4896007;29;20538;-80
2021/03/28 05:20:02;;;;;;;5.30;0.43;;;5.90;99.90;;;;;;4911536;29;20043;-80
2021/03/28 05:23:05;;;;;;;4.35;0.50;;;5.80;99.90;;;;;;4911107;29;20040;-80
2021/03/28 05:25:49;;;;;;;5.55;0.57;;;5.60;99.90;;;;;;4927362;29;20044;-80
2021/03/28 05:28:52;;;;;;;5.35;1.00;;;5.50;99.90;;;;;;4946986;29;20046;-80
2021/03/28 05:31:54;;;;;;;6.40;0.50;;;5.50;99.90;;;;;;4965191;29;20070;-81
2021/03/28 05:34:50;;;;;;;5.90;0.63;;;5.50;99.90;;;;;;4962058;28;20062;-81
2021/03/28 05:37:45;;;;;;;2.63;0.43;;;5.60;99.90;;;;;;4932527;29;20043;-81
2021/03/28 05:40:17;;;;;;;2.92;0.50;;;5.60;99.90;;;;;;4932963;29;20063;-80
2021/03/28 05:43:07;;;;;;;4.25;0.60;;;5.70;99.90;;;;;;4956230;28;20058;-81
2021/03/28 05:46:10;;;;;;;5.13;0.50;;;5.70;99.90;;;;;;5007405;28;20026;-81
2021/03/28 05:49:01;;;;;;;5.15;0.70;;;5.80;99.90;;;;;;5007301;28;20486;-81
2021/03/28 05:51:49;;;;;;;4.65;0.57;;;5.90;99.90;;;;;;5003617;28;20031;-81
2021/03/28 05:54:59;;;;;;;4.50;1.25;;;5.90;99.90;;;;;;4988191;28;20042;-81
2021/03/28 05:58:03;;;;;;;3.60;0.50;;;6.00;99.90;;;;;;5004200;28;20103;-80
2021/03/28 06:01:06;;;;;;;2.67;0.50;;;6.00;99.90;;;;;;5004122;28;20082;-80
2021/03/28 06:04:02;;;;;;;6.55;0.57;;;6.10;99.90;;;;;;5003642;28;20049;-80
2021/03/28 06:07:11;;;;;;;5.78;0.50;;;6.10;99.90;;;;;;5003875;28;20057;-80
2021/03/28 06:09:58;;;;;;;3.75;0.40;;;6.20;99.90;;;;;;4987645;28;20138;-80
2021/03/28 06:13:10;;;;;;;4.63;0.40;;;6.30;99.90;;;;;;4987739;28;20112;-80
2021/03/28 06:15:57;;;;;;;5.28;0.40;;;6.30;99.90;;;;;;4987732;28;20043;-80
2021/03/28 06:18:59;;;;;;;6.28;0.50;;;6.40;99.90;;;;;;4987666;28;20030;-81
2021/03/28 06:22:12;;;;;;;4.07;0.40;;;6.40;99.90;;;;;;4987482;28;20105;-81
2021/03/28 06:25:17;;;;;;;5.43;0.55;;;6.50;99.90;;;;;;5004049;28;20133;-81
2021/03/28 06:28:17;;;;;;;4.63;0.57;;;6.50;99.90;;;;;;4987811;28;20058;-80
2021/03/28 06:31:20;;;;;;;4.47;0.30;;;6.60;99.90;;;;;;5004390;28;20376;-80
2021/03/28 06:34:01;;;;;;;5.05;0.50;;;6.70;99.90;;;;;;4970713;28;20057;-80
2021/03/28 06:37:08;;;;;;;5.03;0.88;;;6.70;99.90;;;;;;4971319;28;20033;-80
2021/03/28 06:39:50;;;;;;;4.70;0.85;;;6.80;99.90;;;;;;4971265;28;20049;-80
2021/03/28 06:42:36;;;;;;;2.60;0.50;;;6.90;99.90;;;;;;5003448;28;20078;-80
2021/03/28 06:45:26;;;;;;;4.90;0.40;;;7.00;99.90;;;;;;5003758;28;20027;-80
2021/03/28 06:48:16;;;;;;;4.30;0.30;;;7.00;99.90;;;;;;5003642;28;20041;-81
2021/03/28 06:50:42;;;;;;;5.30;0.40;;;7.10;99.90;;;;;;4975754;28;20038;-80
2021/03/28 06:53:44;;;;;;;4.78;0.40;;;7.20;99.90;;;;;;5006600;28;20128;-81
2021/03/28 06:56:49;;;;;;;6.85;0.50;;;7.30;99.90;;;;;;4970641;28;20050;-80
2021/03/28 06:59:43;;;;;;;6.20;0.60;;;7.30;99.90;;;;;;4975284;28;20046;-81
2021/03/28 07:02:22;;;;;;;6.55;0.73;;;7.30;99.90;;;;;;4986762;28;20042;-81
2021/03/28 07:05:06;;;;;;;7.00;0.50;;;7.20;99.90;;;;;;4990975;28;20097;-81
2021/03/28 07:07:54;;;;;;;3.88;0.52;;;7.30;99.90;;;;;;5031509;23;20367;-81
2021/03/28 07:10:38;;;;;;;2.83;0.50;;;7.30;99.90;;;;;;5027156;28;20029;-80
2021/03/28 07:13:31;;;;;;;4.70;0.57;;;7.40;99.90;;;;;;5027018;28;20120;-80
2021/03/28 07:16:22;;;;;;;3.05;0.50;;;7.40;99.90;;;;;;5027117;28;20060;-82
2021/03/28 07:19:01;;;;;;;4.60;0.50;;;7.50;99.90;;;;;;5010642;28;20030;-81
2021/03/28 07:22:05;;;;;;;6.95;0.98;;;7.60;99.90;;;;;;5026939;28;20037;-81
2021/03/28 07:25:13;;;;;;;4.40;0.50;;;7.80;99.90;;;;;;5026951;28;20282;-81
2021/03/28 07:28:23;;;;;;;5.45;0.57;;;7.90;99.90;;;;;;5026975;28;20045;-81
2021/03/28 07:31:22;;;;;;;3.15;0.60;;;7.90;99.90;;;;;;5028028;28;20037;-81
2021/03/28 07:33:51;;;;;;;3.72;0.63;;;8.00;99.90;;;;;;5010701;28;20034;-81
2021/03/28 07:37:02;;;;;;;3.58;0.50;;;8.10;99.90;;;;;;5010114;28;20504;-81
2021/03/28 07:39:52;;;;;;;4.38;0.43;;;8.20;99.90;;;;;;5026197;28;20062;-81
2021/03/28 07:42:49;;;;;;;5.00;0.60;;;8.30;99.90;;;;;;5009998;28;20046;-81
2021/03/28 07:45:44;;;;;;;3.83;0.40;;;8.40;99.90;;;;;;5026209;28;20111;-81
2021/03/28 07:48:16;;;;;;;2.90;0.50;;;8.40;99.90;;;;;;5009926;28;20037;-81
2021/03/28 07:51:07;;;;;;;2.92;0.40;;;8.60;99.90;;;;;;5009836;28;20029;-82
2021/03/28 07:54:08;;;;;;;4.18;0.70;;;8.60;99.90;;;;;;5026330;28;20026;-81
2021/03/28 07:57:08;;;;;;;4.55;0.40;;;8.80;99.90;;;;;;5009804;28;20385;-81
2021/03/28 07:59:59;;;;;;;6.60;0.60;;;8.90;99.90;;;;;;5025941;28;20057;-81
2021/03/28 08:02:30;;;;;;;;;;;8.90;99.90;;;;;;5026216;28;20050;-81
2021/03/28 08:05:34;;;;;;;10.95;0.93;;;9.00;99.90;;;;;;5025575;28;19909;-81
2021/03/28 08:08:20;;;;;;;4.15;0.60;;;9.00;99.90;;;;;;4969273;28;20419;-81
2021/03/28 08:11:14;;;;;;;5.97;0.60;;;9.10;99.90;;;;;;4969250;28;20046;-82
2021/03/28 08:14:10;;;;;;;9.23;0.80;;;9.30;99.90;;;;;;4969206;28;20042;-81
2021/03/28 08:16:38;;;;;;;6.47;0.80;;;9.20;99.90;;;;;;4975357;28;20026;-81
2021/03/28 08:19:26;;;;;;;9.35;1.10;;;9.20;99.90;;;;;;4988525;28;20066;-82
2021/03/28 08:22:12;;;;;;;4.60;0.80;;;9.40;99.90;;;;;;4988302;28;20081;-82
2021/03/28 08:25:10;;;;;;;4.07;0.98;;;9.70;99.90;;;;;;4988500;28;20037;-81
2021/03/28 08:27:54;;;;;;;10.90;1.20;;;9.90;99.90;;;;;;4988377;28;20054;-80
2021/03/28 08:30:48;;;;;;;4.68;0.60;;;10.10;99.90;;;;;;4988346;28;20418;-82
2021/03/28 08:33:30;;;;;;;3.20;0.60;;;10.40;99.90;;;;;;4987881;28;20134;-81
2021/03/28 08:36:17;;;;;;;3.90;0.57;;;10.50;99.90;;;;;;4988124;28;20074;-81
2021/03/28 08:39:20;;;;;;;5.13;0.63;;;10.60;99.90;;;;;;4988212;28;20121;-82
2021/03/28 08:42:12;;;;;;;4.70;0.95;;;10.80;99.90;;;;;;5004577;28;20113;-82
2021/03/28 08:44:46;;;;;;;5.25;0.70;;;10.80;99.90;;;;;;5002685;28;20060;-81
2021/03/28 08:47:36;;;;;;;4.72;0.80;;;10.90;99.90;;;;;;5046584;28;20029;-82
2021/03/28 08:50:36;;;;;;;5.78;0.60;;;11.00;99.90;;;;;;5044963;28;20044;-81
2021/03/28 08:53:21;;;;;;;;;;;11.00;99.90;;;;;;5021704;28;20030;-81
2021/03/28 08:56:15;;;;;;;5.00;0.80;;;11.20;99.90;;;;;;5021909;28;20013;-81
2021/03/28 08:59:08;;;;;;;5.82;0.60;;;11.40;99.90;;;;;;4989957;28;20030;-81
2021/03/28 09:01:55;;;;;;;7.88;0.73;;;11.50;99.90;;;;;;4985513;28;20097;-81
2021/03/28 09:04:48;;;;;;;6.38;0.70;;;11.60;99.90;;;;;;4988758;28;20034;-81
2021/03/28 09:07:33;;;;;;;8.88;0.93;;;11.80;99.90;;;;;;4999036;28;20046;-80
2021/03/28 09:10:15;;;;;;;8.10;1.05;;;12.00;99.90;;;;;;5021797;28;20037;-81
2021/03/28 09:13:01;;;;;;;7.00;0.50;;;12.00;99.90;;;;;;5005025;28;20041;-81
2021/03/28 09:15:27;;;;;;;6.57;0.73;;;12.00;99.90;;;;;;5005215;28;20030;-81
2021/03/28 09:18:22;;;;;;;7.03;0.75;;;12.10;99.90;;;;;;5018257;28;20347;-82
2021/03/28 09:21:33;;;;;;;5.75;0.90;;;12.50;99.90;;;;;;5005043;28;20117;-80
2021/03/28 09:24:18;;;;;;;7.80;1.05;;;12.90;99.90;;;;;;5005192;28;20042;-82
2021/03/28 09:27:20;;;;;;;9.57;0.82;;;12.30;99.90;;;;;;5004069;28;20062;-81
2021/03/28 09:30:16;;;;;;;5.88;0.70;;;12.20;99.90;;;;;;4988914;28;20034;-81
2021/03/28 09:33:25;;;;;;;7.32;0.55;;;12.30;99.90;;;;;;4988838;28;20045;-81
2021/03/28 09:36:09;;;;;;;6.22;0.47;;;12.40;99.90;;;;;;5004453;28;20107;-81
2021/03/28 09:38:56;;;;;;;9.15;0.63;;;12.60;99.90;;;;;;4988959;28;20041;-81
2021/03/28 09:41:22;;;;;;;10.10;0.70;;;12.30;99.90;;;;;;4988275;28;20106;-81
2021/03/28 09:43:55;;;;;;;6.68;0.73;;;12.00;99.90;;;;;;4988776;28;20042;-81
2021/03/28 09:46:44;;;;;;;6.90;0.80;;;12.00;99.90;;;;;;5004728;28;20035;-82
2021/03/28 09:49:25;;;;;;;8.77;1.33;;;12.30;99.90;;;;;;5021316;28;20093;-81
2021/03/28 09:52:32;;;;;;;5.25;0.60;;;12.50;99.90;;;;;;4998709;28;20031;-82
2021/03/28 09:55:38;;;;;;;7.32;0.95;;;12.60;99.90;;;;;;5021175;28;20030;-81
2021/03/28 09:58:37;;;;;;;8.13;1.10;;;12.50;99.90;;;;;;5005609;28;20045;-81
2021/03/28 10:01:24;;;;;;;4.30;0.50;;;12.20;99.90;;;;;;5004943;28;20037;-81
2021/03/28 10:04:11;;;;;;;5.35;0.52;;;12.60;99.90;;;;;;5005656;28;20053;-81
2021/03/28 10:06:37;;;;;;;5.90;0.50;;;12.70;99.90;;;;;;5003645;28;20061;-81
2021/03/28 10:09:48;;;;;;;7.70;0.90;;;12.50;99.90;;;;;;5004249;28;20105;-81
2021/03/28 10:12:20;;;;;;;8.90;1.00;;;12.40;99.90;;;;;;5019444;28;20071;-81
2021/03/28 10:15:15;;;;;;;7.05;0.80;;;12.50;99.90;;;;;;5020579;28;20118;-81
2021/03/28 10:17:46;;;;;;;7.75;0.60;;;12.50;99.90;;;;;;5034314;28;20051;-81
2021/03/28 10:20:22;;;;;;;6.18;0.60;;;12.50;99.90;;;;;;5026925;28;20110;-81
2021/03/28 10:23:12;;;;;;;4.68;0.50;;;12.50;99.90;;;;;;5026711;28;20559;-81
2021/03/28 10:26:15;;;;;;;4.38;0.40;;;12.40;99.90;;;;;;5026954;28;20036;-81
2021/03/28 10:29:07;;;;;;;4.90;0.30;;;12.50;99.90;;;;;;5026936;28;20040;-81
2021/03/28 10:31:56;;;;;;;4.25;0.25;;;12.80;99.90;;;;;;5043223;28;20079;-81
2021/03/28 10:34:52;;;;;;;5.63;0.50;;;12.90;99.90;;;;;;5026925;28;20037;-81
2021/03/28 10:37:45;;;;;;;3.97;0.45;;;13.10;99.90;;;;;;5043118;28;20076;-82
2021/03/28 10:40:43;;;;;;;3.03;0.30;;;13.10;99.90;;;;;;5026131;28;20135;-81
2021/03/28 10:43:46;;;;;;;3.45;0.38;;;13.50;99.90;;;;;;4999276;28;20050;-81
2021/03/28 10:46:32;;;;;;;3.70;0.40;;;13.10;99.90;;;;;;5007529;28;20205;-82
2021/03/28 10:49:04;;;;;;;3.55;0.40;;;13.10;99.90;;;;;;4991333;28;20054;-80
2021/03/28 10:51:56;;;;;;;4.50;0.50;;;13.10;99.90;;;;;;4998726;28;20034;-82
2021/03/28 10:54:50;;;;;;;2.85;0.30;;;12.90;99.90;;;;;;5008921;28;20033;-81
2021/03/28 10:58:01;;;;;;;5.45;0.57;;;12.80;99.90;;;;;;5026879;28;20042;-81
2021/03/28 11:00:52;;;;;;;3.72;0.30;;;13.00;99.90;;;;;;5027089;28;20033;-81
2021/03/28 11:03:55;;;;;;;4.03;0.30;;;13.10;99.90;;;;;;5043404;28;20049;-81
2021/03/28 11:06:40;;;;;;;4.63;0.30;;;12.90;99.90;;;;;;5042879;28;20025;-81
2021/03/28 11:09:42;;;;;;;4.60;0.60;;;12.70;99.90;;;;;;5026874;28;20052;-81
2021/03/28 11:12:24;;;;;;;2.95;0.40;;;12.80;99.90;;;;;;4989506;28;20109;-81
2021/03/28 11:15:28;;;;;;;4.28;0.40;;;13.10;99.90;;;;;;5026754;28;20070;-81
2021/03/28 11:18:00;;;;;;;3.83;0.55;;;12.60;99.90;;;;;;4989472;28;20090;-82
2021/03/28 11:20:51;;;;;;;2.40;0.40;;;12.50;99.90;;;;;;4989736;28;20538;-81
2021/03/28 11:23:43;;;;;;;3.83;0.50;;;12.60;99.90;;;;;;4989383;28;20230;-81
2021/03/28 11:26:49;;;;;;;5.43;1.48;;;12.80;99.90;;;;;;4989631;28;20038;-81
2021/03/28 11:29:33;;;;;;;2.95;0.32;;;13.00;99.90;;;;;;5005900;28;20049;-81
2021/03/28 11:32:17;;;;;;;5.07;0.52;;;12.80;99.90;;;;;;5005906;28;20061;-82
2021/03/28 11:35:01;;;;;;;6.93;0.50;;;12.80;99.90;;;;;;5002700;28;20058;-82
2021/03/28 11:37:46;;;;;;;4.30;0.40;;;12.70;99.90;;;;;;4989108;28;20035;-82
2021/03/28 11:40:28;;;;;;;5.90;0.57;;;12.40;99.90;;;;;;4989321;28;20036;-81
2021/03/28 11:43:10;;;;;;;6.82;0.52;;;12.10;99.90;;;;;;4988866;28;20054;-81
2021/03/28 11:45:42;;;;;;;3.67;0.45;;;12.00;99.90;;;;;;5005517;28;20034;-82
2021/03/28 11:49:10;;;;;;;7.53;0.40;;;12.00;99.90;;;;;;4997268;28;20045;-81
2021/03/28 11:51:36;;;;;;;4.30;0.40;;;11.80;99.90;;;;;;5009190;28;20036;-81
2021/03/28 11:54:08;;;;;;;5.47;1.38;;;11.80;99.90;;;;;;5027362;28;20042;-82
2021/03/28 11:56:43;;;;;;;3.83;0.40;;;11.90;99.90;;;;;;5027284;28;20018;-81
2021/03/28 11:59:18;;;;;;;4.85;0.40;;;11.80;99.90;;;;;;5025879;28;20117;-81
2021/03/28 12:01:56;;;;;;;7.05;1.00;;;11.80;99.90;;;;;;5009398;28;20053;-81
2021/03/28 12:04:41;;;;;;;4.68;0.30;;;11.70;99.90;;;;;;5025609;28;20038;-81
2021/03/28 12:07:22;;;;;;;5.53;0.40;;;11.50;99.90;;;;;;5008724;28;20109;-81
2021/03/28 12:10:04;;;;;;;5.68;0.38;;;11.60;99.90;;;;;;5009207;28;20050;-80
2021/03/28 12:12:39;;;;;;;6.00;0.50;;;11.60;99.90;;;;;;5025519;28;20029;-81
2021/03/28 12:15:42;;;;;;;3.72;0.32;;;11.70;99.90;;;;;;5025475;28;20030;-81
2021/03/28 12:18:35;;;;;;;3.03;0.38;;;11.90;99.90;;;;;;5008784;28;20037;-80
2021/03/28 12:21:07;;;;;;;3.80;0.30;;;12.10;99.90;;;;;;5008695;28;20073;-81
2021/03/28 12:23:38;;;;;;;1.95;0.30;;;12.10;99.90;;;;;;5008933;28;20030;-81
2021/03/28 12:26:28;;;;;;;5.63;0.50;;;12.10;99.90;;;;;;5008663;28;20034;-81
2021/03/28 12:28:58;;;;;;;5.47;0.40;;;12.10;99.90;;;;;;5009066;28;20129;-81
2021/03/28 12:31:27;;;;;;;5.90;0.60;;;12.20;99.90;;;;;;5008796;28;20034;-82
2021/03/28 12:34:04;;;;;;;5.80;0.47;;;12.20;99.90;;;;;;5025185;28;20038;-80
2021/03/28 12:36:54;;;;;;;3.58;0.38;;;12.20;99.90;;;;;;5008686;28;20038;-81
2021/03/28 12:39:40;;;;;;;2.67;0.45;;;12.40;99.90;;;;;;5008788;28;20026;-81
2021/03/28 12:42:20;;;;;;;4.28;0.57;;;12.20;99.90;;;;;;5017665;28;20085;-81
2021/03/28 12:44:49;;;;;;;3.55;0.40;;;12.00;99.90;;;;;;5025180;28;20437;-81
2021/03/28 12:47:24;;;;;;;2.28;0.35;;;12.10;99.90;;;;;;5025157;28;20042;-81
2021/03/28 12:49:53;;;;;;;6.32;0.60;;;12.10;99.90;;;;;;5008522;28;20026;-81
2021/03/28 12:52:34;;;;;;;8.00;0.55;;;12.00;99.90;;;;;;5008446;28;20026;-81
2021/03/28 12:55:16;;;;;;;4.50;0.45;;;11.90;99.90;;;;;;5026136;28;20030;-82
2021/03/28 12:57:49;;;;;;;6.18;1.00;;;11.90;99.90;;;;;;5008453;28;20037;-81
2021/03/28 13:00:15;;;;;;;2.70;0.30;;;11.90;99.90;;;;;;5008298;28;20141;-81
2021/03/28 13:02:41;;;;;;;5.20;0.43;;;11.90;99.90;;;;;;5024685;28;20042;-81
2021/03/28 13:05:37;;;;;;;3.20;0.40;;;11.90;99.90;;;;;;5025876;28;20033;-81
2021/03/28 13:08:05;;;;;;;4.55;0.40;;;11.80;99.90;;;;;;4968051;28;20078;-81
2021/03/28 13:10:38;;;;;;;3.15;0.47;;;11.90;99.90;;;;;;4967862;28;20062;-81
2021/03/28 13:13:25;;;;;;;6.18;0.50;;;11.80;99.90;;;;;;4968196;28;20074;-80
2021/03/28 13:15:55;;;;;;;8.70;0.50;;;11.80;99.90;;;;;;4968092;28;20043;-81
2021/03/28 13:18:27;;;;;;;;;;;11.70;99.90;;;;;;4968754;28;20101;-81
2021/03/28 13:20:57;;;;;;;5.55;0.80;;;11.80;99.90;;;;;;4983968;28;19929;-81
2021/03/28 13:23:38;;;;;;;3.03;0.40;;;11.80;99.90;;;;;;4968053;28;20098;-81
2021/03/28 13:26:29;;;;;;;3.47;0.40;;;11.80;99.90;;;;;;4967865;28;20038;-80
2021/03/28 13:29:16;;;;;;;4.30;0.60;;;11.70;99.90;;;;;;4984195;28;20040;-81
2021/03/28 13:31:54;;;;;;;4.32;0.70;;;11.70;99.90;;;;;;4983805;28;20082;-81
2021/03/28 13:34:29;;;;;;;4.63;0.40;;;11.70;99.90;;;;;;4968039;28;20523;-81
2021/03/28 13:37:03;;;;;;;6.43;0.77;;;11.70;99.90;;;;;;4983680;28;20082;-81
2021/03/28 13:39:31;;;;;;;6.47;0.50;;;11.70;99.90;;;;;;4983820;28;20478;-80
2021/03/28 13:41:57;;;;;;;2.10;0.30;;;11.70;99.90;;;;;;4967469;28;20035;-81
2021/03/28 13:44:24;;;;;;;6.22;0.40;;;11.70;99.90;;;;;;4988218;28;20044;-81
2021/03/28 13:46:56;;;;;;;3.85;0.30;;;11.70;99.90;;;;;;5004243;28;20065;-81
2021/03/28 13:49:29;;;;;;;6.10;0.30;;;11.70;99.90;;;;;;5004348;28;20035;-81
2021/03/28 13:52:26;;;;;;;3.78;0.40;;;11.70;99.90;;;;;;5018532;28;20034;-80
2021/03/28 13:55:42;;;;;;;6.30;0.60;;;11.70;99.90;;;;;;5019712;28;20371;-80
2021/03/28 13:58:18;;;;;;;10.43;0.68;;;11.70;99.90;;;;;;5022665;28;20117;-80
2021/03/28 14:00:48;;;;;;;3.00;0.50;;;11.70;99.90;;;;;;5006201;28;20034;-80
2021/03/28 14:03:26;;;;;;;3.45;0.65;;;11.80;99.90;;;;;;5022844;28;20038;-80
2021/03/28 14:08:44;;;;;;;4.35;0.88;;;11.90;99.90;;;;;;5004061;28;20079;-80
2021/03/28 14:11:21;;;;;;;6.97;0.50;;;12.00;99.90;;;;;;5020750;28;20073;-80
2021/03/28 14:13:56;;;;;;;7.07;0.70;;;11.90;99.90;;;;;;5023620;28;20030;-81
2021/03/28 14:16:23;;;;;;;4.55;0.50;;;11.80;99.90;;;;;;4992191;28;20034;-80
2021/03/28 14:18:54;;;;;;;9.32;0.60;;;11.80;99.90;;;;;;5025287;28;20427;-81
2021/03/28 14:21:34;;;;;;;5.35;0.40;;;11.80;99.90;;;;;;5024946;28;20100;-81
2021/03/28 14:24:11;;;;;;;5.75;0.47;;;11.70;99.90;;;;;;5025120;28;20041;-80
2021/03/28 14:26:48;;;;;;;4.97;1.25;;;11.70;99.90;;;;;;5024739;28;20096;-81
2021/03/28 14:29:25;;;;;;;3.85;0.40;;;11.70;99.90;;;;;;5024866;28;20479;-80
2021/03/28 14:31:59;;;;;;;6.32;0.40;;;11.70;99.90;;;;;;5009551;28;20069;-81
2021/03/28 14:34:25;;;;;;;4.80;0.47;;;11.70;99.90;;;;;;5009666;28;20034;-80
2021/03/28 14:37:28;;;;;;;4.10;0.45;;;11.70;99.90;;;;;;5024491;28;20056;-80